Time;durP1;ratioP1;P1;durP2;ratioP2;P2;SDS_P1;SDS_P2;PMS_P1;PMS_P2;Temp;Humidity;BMP_temperature;BMP_pressure;BME280_temperature;BME280_humidity;BME280_pressure;Samples;Min_cycle;Max_cycle;Signal;HPM_P1;HPM_P2
2021/04/04 00:00:35;;;;;;;14.83;10.25;;;;;;;4.33;58.03;100180.19;1802065;78;21120;-60
2021/04/04 00:03:06;;;;;;;21.23;11.83;;;;;;;4.30;58.10;100179.53;1758495;80;21147;-59
2021/04/04 00:05:34;;;;;;;16.15;10.38;;;;;;;4.28;58.22;100180.91;1759568;80;21183;-59
2021/04/04 00:08:01;;;;;;;17.67;9.53;;;;;;;4.21;58.45;100188.23;1802521;79;21152;-59
2021/04/04 00:10:29;;;;;;;13.88;9.33;;;;;;;4.15;58.77;100184.67;1754161;81;21212;-59
2021/04/04 00:12:57;;;;;;;17.90;11.50;;;;;;;4.10;59.26;100180.18;1787819;80;21121;-59
2021/04/04 00:15:24;;;;;;;22.55;11.00;;;;;;;4.06;59.22;100180.82;1801447;79;21462;-59
2021/04/04 00:17:52;;;;;;;19.35;11.90;;;;;;;4.02;59.23;100175.89;1780471;80;21600;-59
2021/04/04 00:20:19;;;;;;;18.82;12.68;;;;;;;3.93;59.28;100177.22;1770510;80;21198;-59
2021/04/04 00:22:47;;;;;;;20.27;12.28;;;;;;;3.88;59.37;100181.84;1757836;80;21364;-59
2021/04/04 00:25:16;;;;;;;17.65;10.85;;;;;;;3.82;59.41;100184.34;1779774;79;21199;-59
2021/04/04 00:27:44;;;;;;;21.35;11.80;;;;;;;3.76;59.50;100185.14;1770517;80;21115;-59
2021/04/04 00:30:16;;;;;;;17.00;11.30;;;;;;;3.70;59.64;100181.12;1759255;80;21188;-59
2021/04/04 00:32:44;;;;;;;17.85;12.20;;;;;;;3.67;59.74;100185.19;1726851;80;21915;-59
2021/04/04 00:35:17;;;;;;;18.85;12.55;;;;;;;3.64;59.79;100174.94;1745153;80;21221;-59
2021/04/04 00:37:48;;;;;;;17.70;11.65;;;;;;;3.60;60.03;100177.31;1738632;81;21231;-59
2021/04/04 00:40:27;;;;;;;18.70;11.63;;;;;;;3.65;59.84;100161.02;1746632;81;21167;-60
2021/04/04 00:42:55;;;;;;;20.12;13.20;;;;;;;3.65;59.84;100161.02;1764618;79;21143;-60
2021/04/04 00:45:27;;;;;;;20.52;13.65;;;;;;;3.64;60.27;100162.76;1793274;78;21585;-60
2021/04/04 00:47:55;;;;;;;23.07;14.38;;;;;;;3.61;60.64;100163.39;1794116;79;21183;-60
2021/04/04 00:50:26;;;;;;;22.07;13.15;;;;;;;3.57;60.68;100177.50;1805928;79;21184;-60
2021/04/04 00:52:53;;;;;;;19.52;13.93;;;;;;;3.47;61.12;100177.98;1750666;80;21112;-60
2021/04/04 00:55:23;;;;;;;24.23;16.10;;;;;;;3.45;61.78;100182.44;1774123;79;21705;-60
2021/04/04 00:57:52;;;;;;;27.20;15.13;;;;;;;3.44;62.01;100177.31;1794344;79;21136;-60
2021/04/04 01:00:26;;;;;;;31.50;16.62;;;;;;;3.46;61.95;100182.83;1799083;77;21266;-60
2021/04/04 01:02:56;;;;;;;22.93;15.60;;;;;;;3.46;61.31;100188.03;1766735;79;21201;-60
2021/04/04 01:05:36;;;;;;;31.17;17.67;;;;;;;3.39;60.73;100185.83;1756178;79;21120;-60
2021/04/04 01:08:05;;;;;;;23.62;16.00;;;;;;;3.30;60.57;100184.56;1791172;77;21206;-60
2021/04/04 01:10:37;;;;;;;28.50;17.32;;;;;;;3.24;60.71;100187.47;1774584;80;21179;-60
2021/04/04 01:13:27;;;;;;;29.63;17.57;;;;;;;3.18;61.15;100183.89;1785684;79;21455;-60
2021/04/04 01:16:06;;;;;;;27.10;17.35;;;;;;;3.16;61.13;100191.33;1793326;77;21203;-60
2021/04/04 01:19:00;;;;;;;25.40;16.40;;;;;;;3.19;60.88;100190.78;1787556;79;21170;-60
2021/04/04 01:21:54;;;;;;;29.02;17.50;;;;;;;3.15;60.64;100190.94;1785822;77;21187;-58
2021/04/04 01:24:45;;;;;;;31.07;18.10;;;;;;;3.13;60.72;100190.65;1791115;79;21143;-60
2021/04/04 01:27:36;;;;;;;28.98;18.95;;;;;;;3.07;60.51;100194.39;1791995;79;22175;-60
2021/04/04 01:30:07;;;;;;;32.60;19.23;;;;;;;3.07;60.51;100194.39;1788180;79;21143;-59
2021/04/04 01:32:36;;;;;;;36.03;22.13;;;;;;;3.06;60.83;100197.06;1796689;77;21168;-59
2021/04/04 01:35:12;;;;;;;31.93;19.42;;;;;;;3.03;61.32;100195.48;1804393;77;21171;-59
2021/04/04 01:37:40;;;;;;;33.20;21.02;;;;;;;2.97;62.01;100203.59;1797506;77;21163;-59
2021/04/04 01:40:11;;;;;;;35.58;19.57;;;;;;;2.91;62.77;100207.81;1792390;77;21899;-59
2021/04/04 01:42:39;;;;;;;30.57;19.07;;;;;;;2.83;63.41;100203.47;1787595;79;21163;-59
2021/04/04 01:45:08;;;;;;;37.65;23.05;;;;;;;2.85;63.89;100199.02;1806167;77;21141;-59
2021/04/04 01:47:36;;;;;;;37.17;21.85;;;;;;;2.89;64.40;100200.53;1806479;79;21116;-59
2021/04/04 01:50:06;;;;;;;40.40;22.35;;;;;;;2.91;64.79;100203.45;1800775;77;21109;-59
2021/04/04 01:52:34;;;;;;;45.23;24.50;;;;;;;2.92;65.24;100209.02;1798138;77;21185;-60
2021/04/04 01:55:04;;;;;;;42.05;23.38;;;;;;;2.94;65.49;100207.20;1808458;79;21116;-59
2021/04/04 01:57:32;;;;;;;39.90;23.38;;;;;;;2.96;65.61;100205.35;1771063;79;21289;-60
2021/04/04 02:00:00;;;;;;;36.23;23.18;;;;;;;2.99;65.61;100195.23;1776202;79;21191;-60
2021/04/04 02:02:30;;;;;;;36.63;20.52;;;;;;;3.05;65.59;100196.23;1798269;79;21675;-59
2021/04/04 02:04:58;;;;;;;38.10;20.90;;;;;;;3.14;65.44;100195.77;1778799;79;22000;-60
2021/04/04 02:07:27;;;;;;;37.80;21.33;;;;;;;3.29;65.04;100191.50;1771013;77;21172;-59
2021/04/04 02:09:54;;;;;;;34.23;21.30;;;;;;;3.51;64.32;100201.62;1768700;79;21100;-60
2021/04/04 02:12:23;;;;;;;39.67;22.27;;;;;;;3.57;64.46;100208.72;1807809;79;21163;-60
2021/04/04 02:14:51;;;;;;;36.90;24.02;;;;;;;3.57;64.46;100208.72;1772374;79;21155;-60
2021/04/04 02:17:18;;;;;;;47.30;27.67;;;;;;;3.60;64.55;100209.39;1761171;79;21972;-60
2021/04/04 02:19:46;;;;;;;36.38;24.52;;;;;;;3.61;64.94;100207.63;1820453;77;21179;-60
2021/04/04 02:22:14;;;;;;;38.78;24.02;;;;;;;3.62;64.75;100211.45;1715451;81;21175;-60
2021/04/04 02:24:42;;;;;;;39.10;23.42;;;;;;;3.62;64.42;100206.71;1737559;81;21191;-60
2021/04/04 02:27:10;;;;;;;40.45;24.67;;;;;;;3.60;64.35;100209.39;1721915;81;21192;-60
2021/04/04 02:29:37;;;;;;;37.48;23.32;;;;;;;3.59;64.68;100212.91;1698762;81;21979;-60
2021/04/04 02:32:06;;;;;;;42.05;25.08;;;;;;;3.60;64.81;100212.44;1796399;77;21124;-60
2021/04/04 02:34:39;;;;;;;38.02;22.55;;;;;;;3.60;64.73;100215.04;1802202;79;21092;-59
2021/04/04 02:37:10;;;;;;;38.58;22.35;;;;;;;3.65;64.62;100214.36;1767564;79;21124;-60
2021/04/04 02:39:52;;;;;;;38.58;23.30;;;;;;;3.75;64.53;100211.64;1798900;79;21117;-60
2021/04/04 02:42:22;;;;;;;32.73;21.12;;;;;;;3.82;64.49;100206.94;1809402;79;21181;-60
2021/04/04 02:44:54;;;;;;;31.60;21.07;;;;;;;3.91;64.34;100210.31;1801178;77;21259;-60
2021/04/04 02:47:26;;;;;;;39.33;23.35;;;;;;;3.93;64.26;100207.63;1814479;77;21105;-60
2021/04/04 02:49:53;;;;;;;42.23;22.67;;;;;;;3.94;64.24;100209.33;1769480;79;22264;-60
2021/04/04 02:52:23;;;;;;;38.17;22.32;;;;;;;3.96;64.11;100210.07;1796680;79;21120;-60
2021/04/04 02:54:52;;;;;;;34.18;21.52;;;;;;;3.95;63.75;100213.15;1786939;79;21217;-60
2021/04/04 02:57:22;;;;;;;51.55;23.65;;;;;;;3.92;63.66;100218.52;1792554;79;21512;-60
2021/04/04 02:59:54;;;;;;;34.65;22.05;;;;;;;3.87;63.72;100216.63;1801435;77;21175;-60
2021/04/04 03:02:21;;;;;;;32.85;20.25;;;;;;;3.85;63.80;100221.06;1799958;79;21120;-59
2021/04/04 03:04:49;;;;;;;35.55;19.07;;;;;;;3.82;63.89;100223.38;1778440;79;21108;-57
2021/04/04 03:07:19;;;;;;;40.28;19.90;;;;;;;3.82;63.89;100223.38;1765643;79;21181;-57
2021/04/04 03:09:50;;;;;;;26.62;16.87;;;;;;;3.76;63.98;100216.37;1765743;79;21156;-57
2021/04/04 03:12:19;;;;;;;27.17;17.27;;;;;;;3.79;63.66;100220.94;1800136;77;21175;-58
2021/04/04 03:14:46;;;;;;;24.35;16.07;;;;;;;3.91;63.28;100222.86;1791780;79;21101;-57
2021/04/04 03:17:14;;;;;;;27.77;15.88;;;;;;;4.02;63.08;100226.67;1770354;79;21131;-57
2021/04/04 03:19:44;;;;;;;24.67;14.75;;;;;;;4.10;62.90;100220.55;1791731;79;21682;-57
2021/04/04 03:22:12;;;;;;;24.55;14.93;;;;;;;4.18;62.77;100226.17;1794885;77;21171;-58
2021/04/04 03:24:40;;;;;;;26.23;16.15;;;;;;;4.26;62.67;100225.28;1796195;77;21164;-57
2021/04/04 03:27:08;;;;;;;23.40;13.58;;;;;;;4.36;62.47;100224.77;1805733;79;21175;-57
2021/04/04 03:29:35;;;;;;;26.42;13.90;;;;;;;4.44;62.39;100216.89;1794931;77;21709;-58
2021/04/04 03:32:03;;;;;;;26.73;14.28;;;;;;;4.44;62.39;100216.89;1774862;79;21188;-58
2021/04/04 03:34:30;;;;;;;23.22;13.45;;;;;;;4.54;61.91;100218.52;1799578;77;21115;-58
2021/04/04 03:36:58;;;;;;;21.73;12.90;;;;;;;4.54;61.91;100218.52;1747700;81;21128;-59
2021/04/04 03:39:26;;;;;;;19.05;11.70;;;;;;;4.60;61.84;100223.35;1765506;80;21155;-59
2021/04/04 03:41:57;;;;;;;21.00;11.60;;;;;;;4.67;61.58;100220.40;1733218;81;21155;-59
2021/04/04 03:44:26;;;;;;;22.35;12.95;;;;;;;4.71;61.60;100217.98;1770637;79;22114;-58
2021/04/04 03:46:54;;;;;;;18.20;11.63;;;;;;;4.71;61.60;100217.98;1778940;78;21184;-58
2021/04/04 03:49:24;;;;;;;19.92;11.25;;;;;;;4.75;61.36;100207.77;1816618;78;21164;-58
2021/04/04 03:51:59;;;;;;;18.52;10.53;;;;;;;4.75;61.36;100207.77;1798975;79;21186;-58
2021/04/04 03:54:29;;;;;;;16.27;11.00;;;;;;;4.76;61.54;100209.45;1797028;77;21143;-58
2021/04/04 03:56:57;;;;;;;16.35;10.40;;;;;;;4.83;61.65;100210.29;1792562;77;21274;-58
2021/04/04 03:59:25;;;;;;;19.40;10.28;;;;;;;4.98;61.46;100212.45;1789842;77;21156;-58
2021/04/04 04:01:52;;;;;;;16.05;9.68;;;;;;;5.10;61.13;100217.88;1790459;79;21567;-58
2021/04/04 04:04:20;;;;;;;20.60;10.93;;;;;;;5.19;60.84;100220.78;1743457;81;21186;-58
2021/04/04 04:06:48;;;;;;;16.62;10.93;;;;;;;5.29;60.47;100225.42;1762982;79;21690;-59
2021/04/04 04:09:17;;;;;;;22.87;11.15;;;;;;;5.38;59.92;100230.11;1742448;79;21252;-58
2021/04/04 04:11:47;;;;;;;17.92;10.45;;;;;;;5.44;59.70;100230.19;1710828;81;21278;-58
2021/04/04 04:14:19;;;;;;;16.75;10.55;;;;;;;5.47;59.69;100230.83;1774057;77;21168;-61
2021/04/04 04:16:47;;;;;;;19.90;11.35;;;;;;;5.50;59.79;100235.04;1794820;79;21194;-61
2021/04/04 04:19:15;;;;;;;18.80;11.03;;;;;;;5.51;60.05;100235.39;1800124;79;21178;-60
2021/04/04 04:21:44;;;;;;;26.75;15.58;;;;;;;5.52;60.09;100237.08;1798457;79;21187;-60
2021/04/04 04:24:13;;;;;;;24.98;14.50;;;;;;;5.50;60.13;100237.17;1768784;79;21187;-59
2021/04/04 04:26:46;;;;;;;25.20;14.40;;;;;;;5.50;59.94;100232.43;1771575;79;21199;-59
2021/04/04 04:29:18;;;;;;;28.20;15.78;;;;;;;5.51;60.37;100234.09;1794324;77;21670;-60
2021/04/04 04:31:47;;;;;;;21.12;13.10;;;;;;;5.48;60.55;100231.66;1764500;79;21187;-60
2021/04/04 04:34:15;;;;;;;22.07;14.13;;;;;;;5.45;60.82;100237.09;1766661;77;21186;-60
2021/04/04 04:36:43;;;;;;;26.42;16.80;;;;;;;5.42;60.98;100236.80;1771361;78;21136;-59
2021/04/04 04:39:11;;;;;;;27.20;15.88;;;;;;;5.40;61.86;100250.41;1762616;79;21223;-59
2021/04/04 04:41:46;;;;;;;25.35;15.55;;;;;;;5.42;61.69;100251.16;1791768;79;21195;-61
2021/04/04 04:44:17;;;;;;;27.30;17.23;;;;;;;5.48;61.30;100253.84;1792092;77;21219;-57
2021/04/04 04:46:45;;;;;;;26.17;15.83;;;;;;;5.44;60.81;100257.11;1774580;77;21540;-59
2021/04/04 04:49:14;;;;;;;26.57;16.97;;;;;;;5.36;60.90;100260.20;1800940;79;21247;-58
2021/04/04 04:51:47;;;;;;;27.85;16.15;;;;;;;5.31;61.07;100258.78;1779224;79;21155;-58
2021/04/04 04:54:17;;;;;;;23.45;14.50;;;;;;;5.26;61.34;100258.22;1799350;77;21140;-59
2021/04/04 04:56:45;;;;;;;32.05;17.12;;;;;;;5.20;61.55;100256.83;1800380;77;21159;-58
2021/04/04 04:59:12;;;;;;;27.75;15.58;;;;;;;5.14;61.53;100257.18;1801693;79;21365;-57
2021/04/04 05:01:47;;;;;;;25.27;15.93;;;;;;;5.10;61.78;100263.52;1753874;79;21195;-57
2021/04/04 05:04:14;;;;;;;26.65;15.38;;;;;;;5.06;62.07;100263.31;1745539;80;21579;-57
2021/04/04 05:06:47;;;;;;;24.92;14.33;;;;;;;5.12;62.25;100270.78;1714046;81;21251;-58
2021/04/04 05:09:15;;;;;;;22.73;14.35;;;;;;;5.26;62.16;100276.48;1797916;77;21175;-58
2021/04/04 05:11:50;;;;;;;23.62;14.43;;;;;;;5.31;62.00;100272.69;1798628;77;21364;-58
2021/04/04 05:14:19;;;;;;;27.00;14.25;;;;;;;5.31;62.08;100277.91;1794185;77;21203;-58
2021/04/04 05:16:47;;;;;;;24.45;15.03;;;;;;;5.34;61.94;100273.78;1795556;77;21439;-58
2021/04/04 05:19:15;;;;;;;25.82;14.98;;;;;;;5.34;62.05;100271.17;1765253;79;21635;-58
2021/04/04 05:21:44;;;;;;;32.25;17.42;;;;;;;5.34;62.25;100267.73;1796961;79;21152;-58
2021/04/04 05:24:13;;;;;;;31.42;17.45;;;;;;;5.33;62.52;100269.52;1801214;77;21366;-58
2021/04/04 05:26:45;;;;;;;23.30;15.30;;;;;;;5.33;62.70;100272.56;1798191;77;21234;-59
2021/04/04 05:29:15;;;;;;;25.80;14.47;;;;;;;5.38;62.77;100275.77;1796429;77;22198;-59
2021/04/04 05:31:51;;;;;;;32.45;17.25;;;;;;;5.53;62.64;100280.50;1767397;79;21219;-59
2021/04/04 05:34:25;;;;;;;28.50;17.07;;;;;;;5.68;62.49;100286.12;1795724;77;21203;-59
2021/04/04 05:36:58;;;;;;;24.10;16.75;;;;;;;5.84;62.50;100285.17;1799795;77;21355;-59
2021/04/04 05:39:29;;;;;;;29.27;17.87;;;;;;;5.99;62.34;100282.94;1797075;77;21210;-59
2021/04/04 05:42:22;;;;;;;28.57;16.75;;;;;;;6.12;62.20;100290.38;1797151;77;21171;-59
2021/04/04 05:45:03;;;;;;;23.55;13.72;;;;;;;6.21;62.28;100288.13;1730969;81;21151;-59
2021/04/04 05:47:39;;;;;;;21.50;13.95;;;;;;;6.30;62.22;100285.77;1756039;80;21187;-57
2021/04/04 05:50:24;;;;;;;26.35;15.58;;;;;;;6.34;62.36;100290.33;1738061;80;22623;-57
2021/04/04 05:53:14;;;;;;;22.32;13.62;;;;;;;6.38;62.05;100286.57;1740659;80;21485;-60
2021/04/04 05:56:05;;;;;;;24.65;13.78;;;;;;;6.40;62.15;100286.00;1729014;80;21176;-59
2021/04/04 05:58:37;;;;;;;22.62;12.45;;;;;;;6.48;61.48;100294.19;1764077;80;21231;-60
2021/04/04 06:01:35;;;;;;;16.97;9.23;;;;;;;6.62;60.78;100283.31;1756423;80;21502;-60
2021/04/04 06:04:29;;;;;;;18.17;10.23;;;;;;;6.67;59.45;100295.61;1753884;80;21257;-61
2021/04/04 06:07:37;;;;;;;16.07;9.28;;;;;;;6.67;59.55;100290.38;1752750;80;21881;-60
2021/04/04 06:10:08;;;;;;;16.15;8.95;;;;;;;6.72;59.56;100296.14;1732109;80;21191;-59
2021/04/04 06:12:56;;;;;;;14.87;8.65;;;;;;;6.76;59.50;100304.18;1722270;81;21218;-59
2021/04/04 06:15:48;;;;;;;12.07;6.90;;;;;;;6.80;59.12;100303.02;1758307;80;21626;-60
2021/04/04 06:18:48;;;;;;;14.30;7.70;;;;;;;6.85;58.96;100304.86;1732340;81;22150;-59
2021/04/04 06:21:27;;;;;;;11.10;6.00;;;;;;;6.87;58.59;100305.59;1676673;85;21573;-58
2021/04/04 06:24:20;;;;;;;9.33;4.85;;;;;;;6.90;58.45;100314.20;1656096;84;21272;-57
2021/04/04 06:27:42;;;;;;;12.70;4.65;;;;;;;6.91;57.55;100307.57;1708764;81;21214;-58
2021/04/04 06:30:49;;;;;;;9.08;4.10;;;;;;;6.93;57.78;100310.91;1656850;85;21244;-59
2021/04/04 06:33:28;;;;;;;6.90;3.62;;;;;;;6.95;57.31;100311.64;1698500;82;22049;-58
2021/04/04 06:36:07;;;;;;;9.35;4.97;;;;;;;6.95;57.34;100314.73;1733045;82;21267;-59
2021/04/04 06:39:06;;;;;;;6.70;3.37;;;;;;;6.97;57.70;100314.16;1733857;82;21179;-58
2021/04/04 06:41:51;;;;;;;8.93;4.58;;;;;;;7.04;57.80;100322.83;1755252;80;21319;-59
2021/04/04 06:44:49;;;;;;;8.38;5.12;;;;;;;7.17;57.86;100316.77;1740403;80;21209;-59
2021/04/04 06:48:02;;;;;;;14.35;8.45;;;;;;;7.23;57.53;100318.50;1733392;82;21249;-57
2021/04/04 06:50:35;;;;;;;13.38;7.28;;;;;;;7.25;56.90;100314.48;1737943;80;21284;-57
2021/04/04 06:53:27;;;;;;;14.15;7.58;;;;;;;7.22;56.78;100321.22;1730390;80;21738;-58
2021/04/04 06:56:15;;;;;;;12.80;6.60;;;;;;;7.23;57.05;100318.98;1733813;81;21213;-57
2021/04/04 06:58:58;;;;;;;13.70;7.53;;;;;;;7.25;56.94;100329.70;1734164;80;21134;-59
2021/04/04 07:01:58;;;;;;;12.93;6.97;;;;;;;7.27;57.08;100331.39;1732958;82;21462;-57
2021/04/04 07:04:48;;;;;;;10.13;6.05;;;;;;;7.25;56.74;100327.56;1740735;82;21196;-57
2021/04/04 07:07:21;;;;;;;10.60;6.60;;;;;;;7.16;56.72;100330.33;1737619;80;21241;-60
2021/04/04 07:10:01;;;;;;;10.55;6.33;;;;;;;7.12;56.96;100338.48;1737860;80;21573;-58
2021/04/04 07:13:11;;;;;;;13.10;6.55;;;;;;;7.10;56.92;100339.88;1701879;82;21613;-58
2021/04/04 07:16:13;;;;;;;13.05;6.05;;;;;;;7.09;57.05;100338.20;1737023;80;21641;-59
2021/04/04 07:19:20;;;;;;;17.75;7.70;;;;;;;7.09;57.13;100338.20;1704603;82;21640;-59
2021/04/04 07:22:18;;;;;;;16.15;8.38;;;;;;;7.07;57.43;100336.16;1733778;80;21138;-59
2021/04/04 07:25:32;;;;;;;14.38;7.53;;;;;;;7.04;57.41;100341.59;1713252;82;21224;-59
2021/04/04 07:28:22;;;;;;;17.00;7.85;;;;;;;7.11;57.58;100345.95;1717288;82;21271;-58
2021/04/04 07:30:57;;;;;;;10.93;6.53;;;;;;;7.23;57.51;100347.29;1734388;80;21232;-59
2021/04/04 07:37:33;;;;;;;12.05;6.08;;;;;;;7.31;56.59;100340.70;1754691;80;21185;-59
2021/04/04 07:40:27;;;;;;;11.78;6.37;;;;;;;7.36;56.81;100355.63;1756053;80;21210;-59
2021/04/04 07:43:10;;;;;;;14.87;7.33;;;;;;;7.41;56.85;100345.67;1767180;79;21206;-59
2021/04/04 07:45:41;;;;;;;13.53;7.28;;;;;;;7.47;56.20;100347.89;1768993;79;22104;-59
2021/04/04 07:48:14;;;;;;;14.28;7.70;;;;;;;7.54;56.19;100353.07;1744685;79;21449;-57
2021/04/04 07:50:49;;;;;;;16.50;6.20;;;;;;;7.61;55.83;100355.63;1781691;79;21260;-57
2021/04/04 07:53:22;;;;;;;11.08;5.42;;;;;;;7.70;55.77;100359.88;1754905;80;21227;-58
2021/04/04 07:56:01;;;;;;;11.80;5.58;;;;;;;7.75;55.47;100359.09;1768238;79;21211;-58
2021/04/04 07:58:38;;;;;;;11.43;5.08;;;;;;;7.77;55.32;100352.81;1716547;81;21481;-58
2021/04/04 08:01:09;;;;;;;13.85;5.50;;;;;;;7.81;54.85;100355.58;1743395;80;21219;-59
2021/04/04 08:03:45;;;;;;;12.43;5.95;;;;;;;7.89;55.23;100360.30;1764045;79;21195;-58
2021/04/04 08:06:12;;;;;;;12.87;6.93;;;;;;;7.99;55.12;100361.34;1769747;79;21267;-59
2021/04/04 08:08:53;;;;;;;14.07;6.30;;;;;;;8.06;55.04;100360.92;1740065;80;21228;-59
2021/04/04 08:11:46;;;;;;;12.18;5.80;;;;;;;8.08;54.96;100351.16;1769124;79;22917;-59
2021/04/04 08:14:19;;;;;;;12.68;4.95;;;;;;;8.10;55.00;100350.57;1756711;80;21255;-58
2021/04/04 08:16:57;;;;;;;12.70;5.70;;;;;;;8.14;54.67;100355.50;1754957;80;21649;-58
2021/04/04 08:19:25;;;;;;;14.78;5.90;;;;;;;8.21;54.78;100357.70;1762178;79;21201;-58
2021/04/04 08:22:09;;;;;;;11.08;5.53;;;;;;;8.27;54.42;100358.10;1762376;79;21197;-57
2021/04/04 08:24:47;;;;;;;7.35;4.55;;;;;;;8.29;53.73;100356.20;1757700;81;21498;-57
2021/04/04 08:27:59;;;;;;;9.45;4.85;;;;;;;8.33;54.06;100351.09;1866040;74;22740;-57
2021/04/04 08:30:35;;;;;;;10.05;4.78;;;;;;;8.32;53.46;100348.58;1780520;78;21602;-59
2021/04/04 08:33:20;;;;;;;6.20;2.70;;;;;;;8.32;53.39;100353.37;1803882;77;21209;-58
2021/04/04 08:35:52;;;;;;;7.10;3.50;;;;;;;8.31;53.16;100349.06;1750196;80;21308;-58
2021/04/04 08:38:36;;;;;;;8.18;4.47;;;;;;;8.30;52.99;100349.99;1783597;77;21190;-59
2021/04/04 08:41:06;;;;;;;10.80;5.78;;;;;;;8.32;53.19;100352.06;1776490;78;21514;-59
2021/04/04 08:43:34;;;;;;;9.60;4.90;;;;;;;8.35;53.34;100347.91;1774725;78;21175;-57
2021/04/04 08:46:26;;;;;;;7.58;3.85;;;;;;;8.38;53.33;100348.98;1779854;78;21253;-58
2021/04/04 08:48:53;;;;;;;7.55;3.00;;;;;;;8.41;52.90;100343.17;1778203;78;21707;-62
2021/04/04 08:51:23;;;;;;;7.55;3.27;;;;;;;8.38;52.71;100341.11;1755159;78;21242;-62
2021/04/04 08:53:51;;;;;;;7.08;3.02;;;;;;;8.38;53.04;100345.05;1816967;77;21203;-62
2021/04/04 08:56:19;;;;;;;6.53;3.22;;;;;;;8.43;52.86;100340.00;1737792;79;21215;-64
2021/04/04 08:58:50;;;;;;;6.25;3.00;;;;;;;8.50;53.01;100339.91;1785387;78;21650;-58
2021/04/04 09:01:37;;;;;;;6.90;3.33;;;;;;;8.61;52.96;100333.42;1773548;78;21172;-58
2021/04/04 09:06:43;;;;;;;6.45;2.60;;;;;;;8.88;52.00;100334.98;1827776;77;22563;-57
2021/04/04 09:09:24;;;;;;;7.33;2.52;;;;;;;8.86;50.94;100333.78;1775100;77;21174;-57
2021/04/04 09:11:53;;;;;;;4.90;2.42;;;;;;;8.90;50.97;100330.45;1781160;77;21241;-57
2021/04/04 09:14:23;;;;;;;6.85;3.75;;;;;;;8.97;50.58;100332.14;1812812;77;21220;-57
2021/04/04 09:16:55;;;;;;;7.87;4.08;;;;;;;9.07;50.92;100335.27;1813583;77;21060;-57
2021/04/04 09:19:31;;;;;;;6.15;2.70;;;;;;;9.19;50.92;100332.69;1801868;78;21346;-58
2021/04/04 09:22:04;;;;;;;7.00;3.00;;;;;;;9.29;50.56;100323.16;1798010;77;21083;-56
2021/04/04 09:24:49;;;;;;;6.20;2.90;;;;;;;9.43;49.93;100326.05;1797489;77;21239;-57
2021/04/04 09:27:18;;;;;;;7.72;2.77;;;;;;;9.59;49.31;100325.73;1745176;81;21640;-57
2021/04/04 09:29:50;;;;;;;6.92;3.17;;;;;;;9.67;48.93;100315.47;1807990;77;21107;-57
2021/04/04 09:32:35;;;;;;;6.80;2.85;;;;;;;9.78;48.19;100316.77;1798622;77;21203;-57
2021/04/04 09:35:04;;;;;;;14.60;3.10;;;;;;;9.90;46.95;100312.83;1810244;77;21172;-58
2021/04/04 09:37:33;;;;;;;5.90;2.70;;;;;;;10.06;47.24;100308.53;1812116;77;21427;-57
2021/04/04 09:40:00;;;;;;;5.17;2.75;;;;;;;10.23;46.76;100311.47;1778489;78;21175;-58
2021/04/04 09:42:30;;;;;;;8.30;4.15;;;;;;;10.34;45.79;100310.66;1737236;80;22529;-57
2021/04/04 09:45:23;;;;;;;7.03;3.90;;;;;;;10.41;46.78;100307.88;1776125;78;21219;-57
2021/04/04 09:47:51;;;;;;;8.73;4.50;;;;;;;10.48;47.15;100306.91;1804223;77;21149;-55
2021/04/04 09:50:23;;;;;;;9.13;4.95;;;;;;;10.56;46.35;100307.12;1776369;78;21203;-55
2021/04/04 09:52:52;;;;;;;7.67;4.40;;;;;;;10.52;46.05;100303.09;1713424;80;21599;-54
2021/04/04 09:55:24;;;;;;;10.53;4.37;;;;;;;10.43;46.42;100299.88;1808836;77;21612;-57
2021/04/04 09:57:59;;;;;;;10.88;3.95;;;;;;;10.37;46.24;100297.73;1710410;80;21573;-55
2021/04/04 10:00:34;;;;;;;7.40;3.77;;;;;;;10.23;48.14;100309.33;1807342;77;21212;-55
2021/04/04 10:03:15;;;;;;;8.30;3.70;;;;;;;9.92;50.20;100296.45;1803311;77;21359;-54
2021/04/04 10:05:46;;;;;;;7.47;3.52;;;;;;;9.58;51.19;100314.84;1802451;77;21200;-55
2021/04/04 10:08:22;;;;;;;6.60;3.05;;;;;;;9.22;51.95;100318.02;1773244;78;21163;-54
2021/04/04 10:10:57;;;;;;;11.57;4.40;;;;;;;8.92;52.91;100311.00;1807100;78;21147;-56
2021/04/04 10:13:30;;;;;;;12.23;4.10;;;;;;;8.62;53.84;100325.06;1777392;77;21246;-56
2021/04/04 10:15:58;;;;;;;7.35;3.67;;;;;;;8.37;54.98;100322.87;1801754;77;21854;-56
2021/04/04 10:18:27;;;;;;;7.15;3.90;;;;;;;8.21;55.72;100332.80;1796539;78;21211;-55
2021/04/04 10:20:57;;;;;;;7.67;4.10;;;;;;;8.07;55.95;100341.61;1776722;77;21204;-57
2021/04/04 10:23:34;;;;;;;6.10;3.50;;;;;;;7.88;56.74;100333.72;1811620;77;21183;-56
2021/04/04 10:26:07;;;;;;;6.78;3.00;;;;;;;7.70;57.67;100346.33;1744254;80;21621;-58
2021/04/04 10:31:48;;;;;;;7.35;3.92;;;;;;;7.67;57.87;100348.33;1832850;76;22763;-58
2021/04/04 10:34:16;;;;;;;6.73;3.53;;;;;;;7.56;58.76;100359.52;1799986;77;21227;-59
2021/04/04 10:37:03;;;;;;;7.53;3.72;;;;;;;7.49;59.60;100370.88;1745312;81;21202;-57
2021/04/04 10:39:32;;;;;;;6.58;2.98;;;;;;;7.40;60.72;100374.12;1740096;80;21167;-58
2021/04/04 10:42:15;;;;;;;7.22;3.80;;;;;;;7.33;61.21;100375.00;1742700;81;21247;-57
2021/04/04 10:44:43;;;;;;;5.33;2.15;;;;;;;7.31;61.38;100391.26;1772418;79;21173;-57
2021/04/04 10:47:19;;;;;;;6.97;3.98;;;;;;;7.27;61.62;100398.95;1800731;78;21551;-57
2021/04/04 10:49:51;;;;;;;7.83;4.58;;;;;;;7.20;62.18;100393.28;1798832;78;21207;-57
2021/04/04 10:52:18;;;;;;;7.17;3.83;;;;;;;7.18;62.61;100401.72;1798875;78;21187;-56
2021/04/04 10:54:46;;;;;;;6.58;3.90;;;;;;;7.15;62.74;100403.70;1766074;78;21224;-56
2021/04/04 10:57:14;;;;;;;7.80;4.12;;;;;;;7.05;62.71;100402.14;1796313;79;21666;-57
2021/04/04 10:59:42;;;;;;;6.80;3.80;;;;;;;7.05;63.29;100389.06;1765341;79;21494;-57
2021/04/04 11:02:11;;;;;;;6.05;3.55;;;;;;;7.10;63.05;100377.83;1723708;81;21607;-55
2021/04/04 11:04:40;;;;;;;6.78;3.77;;;;;;;7.16;63.05;100364.34;1731783;80;21227;-56
2021/04/04 11:07:08;;;;;;;6.25;3.37;;;;;;;7.34;63.15;100360.13;1728442;81;21212;-55
2021/04/04 11:09:36;;;;;;;6.78;4.03;;;;;;;7.58;62.69;100353.25;1696291;82;21670;-56
2021/04/04 11:12:06;;;;;;;7.37;4.62;;;;;;;7.83;62.08;100351.55;1697994;81;21630;-56
2021/04/04 11:14:35;;;;;;;8.43;4.40;;;;;;;8.05;61.72;100341.72;1705978;82;21225;-56
2021/04/04 11:17:04;;;;;;;7.05;3.33;;;;;;;8.30;61.64;100340.81;1705101;81;21224;-56
2021/04/04 11:19:33;;;;;;;7.78;4.08;;;;;;;8.56;61.10;100336.86;1705352;81;21210;-56
2021/04/04 11:22:02;;;;;;;8.18;4.50;;;;;;;8.71;60.68;100333.11;1734267;81;21188;-57
2021/04/04 11:24:31;;;;;;;7.62;3.85;;;;;;;8.83;60.52;100337.93;1728831;81;21170;-57
2021/04/04 11:27:01;;;;;;;6.62;4.10;;;;;;;8.96;60.59;100331.77;1717709;81;21228;-57
2021/04/04 11:29:29;;;;;;;6.97;4.00;;;;;;;9.17;60.65;100325.41;1737731;81;21659;-57
2021/04/04 11:32:00;;;;;;;7.12;4.17;;;;;;;9.43;60.23;100326.05;1697544;81;21236;-57
2021/04/04 11:34:40;;;;;;;5.95;3.47;;;;;;;9.59;59.36;100327.86;1732362;81;21209;-57
2021/04/04 11:37:19;;;;;;;7.47;3.85;;;;;;;9.65;57.51;100316.89;1737143;80;21658;-57
2021/04/04 11:40:17;;;;;;;6.15;3.58;;;;;;;9.73;57.46;100317.59;1734033;81;21228;-57
2021/04/04 11:42:50;;;;;;;6.75;3.30;;;;;;;9.85;55.90;100321.06;1733777;82;21216;-57
2021/04/04 11:45:38;;;;;;;6.22;3.65;;;;;;;9.91;54.45;100313.20;1730480;81;21628;-57
2021/04/04 11:48:31;;;;;;;5.95;3.30;;;;;;;10.03;54.37;100306.97;1721241;81;21164;-57
2021/04/04 11:51:18;;;;;;;6.33;3.80;;;;;;;10.19;54.00;100313.17;1720491;81;21224;-58
2021/04/04 11:53:47;;;;;;;;;;;;;;;10.32;53.02;100301.20;1728931;81;21436;-59
2021/04/04 11:56:47;;;;;;;7.45;4.17;;;;;;;10.37;52.91;100302.53;1727667;80;20436;-59
2021/04/04 11:59:14;;;;;;;5.50;3.42;;;;;;;10.43;52.77;100300.36;1725649;81;22710;-58
2021/04/04 12:01:44;;;;;;;6.35;4.05;;;;;;;10.56;52.53;100293.97;1712796;81;21483;-57
2021/04/04 12:04:21;;;;;;;7.65;4.37;;;;;;;10.72;51.83;100294.03;1715713;81;21867;-58
2021/04/04 12:07:14;;;;;;;6.33;3.77;;;;;;;10.84;51.02;100293.01;1680673;83;21214;-59
2021/04/04 12:09:47;;;;;;;6.25;3.83;;;;;;;10.96;50.59;100285.43;1663088;84;21255;-58